sensor_id;sensor_type;location;lat;lon;timestamp;pressure;altitude;pressure_sealevel;temperature;humidity
19748;BME280;10032;51.386;12.516;2023-08-30T00:00:14;99404.78;;;16.47;100.00
19748;BME280;10032;51.386;12.516;2023-08-30T00:02:43;99411.03;;;16.47;100.00
19748;BME280;10032;51.386;12.516;2023-08-30T00:05:08;99411.22;;;16.51;100.00
19748;BME280;10032;51.386;12.516;2023-08-30T00:07:34;99404.44;;;16.48;100.00
19748;BME280;10032;51.386;12.516;2023-08-30T00:09:59;99399.50;;;16.50;100.00
19748;BME280;10032;51.386;12.516;2023-08-30T00:12:25;99397.06;;;16.49;100.00
19748;BME280;10032;51.386;12.516;2023-08-30T00:14:51;99400.63;;;16.49;100.00
19748;BME280;10032;51.386;12.516;2023-08-30T00:17:16;99399.50;;;16.50;100.00
19748;BME280;10032;51.386;12.516;2023-08-30T00:19:42;99388.56;;;16.50;100.00
19748;BME280;10032;51.386;12.516;2023-08-30T00:22:07;99402.22;;;16.50;100.00
19748;BME280;10032;51.386;12.516;2023-08-30T00:24:33;99401.91;;;16.52;100.00
19748;BME280;10032;51.386;12.516;2023-08-30T00:27:00;99395.63;;;16.51;100.00
19748;BME280;10032;51.386;12.516;2023-08-30T00:29:25;99399.69;;;16.54;100.00
19748;BME280;10032;51.386;12.516;2023-08-30T00:31:50;99401.09;;;16.51;100.00
19748;BME280;10032;51.386;12.516;2023-08-30T00:34:16;99414.28;;;16.49;100.00
19748;BME280;10032;51.386;12.516;2023-08-30T00:36:41;99406.38;;;16.48;100.00
19748;BME280;10032;51.386;12.516;2023-08-30T00:39:06;99414.88;;;16.46;100.00
19748;BME280;10032;51.386;12.516;2023-08-30T00:41:33;99403.94;;;16.46;100.00
19748;BME280;10032;51.386;12.516;2023-08-30T00:43:59;99416.50;;;16.47;100.00
19748;BME280;10032;51.386;12.516;2023-08-30T00:46:25;99413.88;;;16.42;100.00
19748;BME280;10032;51.386;12.516;2023-08-30T00:48:50;99426.44;;;16.43;100.00
19748;BME280;10032;51.386;12.516;2023-08-30T00:51:16;99419.34;;;16.42;100.00
19748;BME280;10032;51.386;12.516;2023-08-30T00:53:41;99428.06;;;16.44;100.00
19748;BME280;10032;51.386;12.516;2023-08-30T00:56:07;99421.59;;;16.40;100.00
19748;BME280;10032;51.386;12.516;2023-08-30T00:58:32;99413.09;;;16.42;100.00
19748;BME280;10032;51.386;12.516;2023-08-30T01:00:58;99412.25;;;16.41;100.00
19748;BME280;10032;51.386;12.516;2023-08-30T01:03:23;99406.56;;;16.38;100.00
19748;BME280;10032;51.386;12.516;2023-08-30T01:05:49;99409.59;;;16.36;100.00
19748;BME280;10032;51.386;12.516;2023-08-30T01:08:14;99399.78;;;16.35;100.00
19748;BME280;10032;51.386;12.516;2023-08-30T01:13:41;99398.47;;;16.33;100.00
19748;BME280;10032;51.386;12.516;2023-08-30T01:16:09;99407.78;;;16.32;100.00
19748;BME280;10032;51.386;12.516;2023-08-30T01:18:35;99411.94;;;16.29;100.00
19748;BME280;10032;51.386;12.516;2023-08-30T01:21:03;99412.53;;;16.26;100.00
19748;BME280;10032;51.386;12.516;2023-08-30T01:23:47;99406.56;;;16.24;100.00
19748;BME280;10032;51.386;12.516;2023-08-30T01:26:38;99406.06;;;16.22;100.00
19748;BME280;10032;51.386;12.516;2023-08-30T01:29:08;99404.25;;;16.18;100.00
19748;BME280;10032;51.386;12.516;2023-08-30T01:31:35;99402.94;;;16.15;100.00
19748;BME280;10032;51.386;12.516;2023-08-30T01:34:04;99401.31;;;16.14;100.00
19748;BME280;10032;51.386;12.516;2023-08-30T01:36:30;99396.44;;;16.11;100.00
19748;BME280;10032;51.386;12.516;2023-08-30T01:38:57;99392.19;;;16.05;100.00
19748;BME280;10032;51.386;12.516;2023-08-30T01:41:24;99394.63;;;16.07;100.00
19748;BME280;10032;51.386;12.516;2023-08-30T01:43:50;99399.28;;;16.06;100.00
19748;BME280;10032;51.386;12.516;2023-08-30T01:46:18;99393.03;;;16.06;100.00
19748;BME280;10032;51.386;12.516;2023-08-30T01:48:46;99395.22;;;16.04;100.00
19748;BME280;10032;51.386;12.516;2023-08-30T01:51:14;99390.59;;;16.04;100.00
19748;BME280;10032;51.386;12.516;2023-08-30T01:53:42;99399.38;;;16.01;100.00
19748;BME280;10032;51.386;12.516;2023-08-30T01:56:08;99391.78;;;15.98;100.00
19748;BME280;10032;51.386;12.516;2023-08-30T01:58:34;99391.59;;;15.95;100.00
19748;BME280;10032;51.386;12.516;2023-08-30T02:01:00;99387.84;;;15.91;100.00
19748;BME280;10032;51.386;12.516;2023-08-30T02:03:25;99386.72;;;15.92;100.00
19748;BME280;10032;51.386;12.516;2023-08-30T02:06:07;99382.69;;;15.89;100.00
19748;BME280;10032;51.386;12.516;2023-08-30T02:08:54;99385.50;;;15.84;100.00
19748;BME280;10032;51.386;12.516;2023-08-30T02:11:23;99378.72;;;15.82;100.00
19748;BME280;10032;51.386;12.516;2023-08-30T02:13:53;99375.19;;;15.81;100.00
19748;BME280;10032;51.386;12.516;2023-08-30T02:16:18;99375.69;;;15.83;100.00
19748;BME280;10032;51.386;12.516;2023-08-30T02:18:45;99380.03;;;15.84;100.00
19748;BME280;10032;51.386;12.516;2023-08-30T02:21:11;99373.47;;;15.85;100.00
19748;BME280;10032;51.386;12.516;2023-08-30T02:23:36;99371.56;;;15.86;100.00
19748;BME280;10032;51.386;12.516;2023-08-30T02:26:02;99375.59;;;15.88;100.00
19748;BME280;10032;51.386;12.516;2023-08-30T02:28:28;99374.47;;;15.89;100.00
19748;BME280;10032;51.386;12.516;2023-08-30T02:30:54;99371.44;;;15.91;100.00
19748;BME280;10032;51.386;12.516;2023-08-30T02:33:20;99364.09;;;15.91;100.00
19748;BME280;10032;51.386;12.516;2023-08-30T02:35:45;99365.69;;;15.92;100.00
19748;BME280;10032;51.386;12.516;2023-08-30T02:38:10;99362.63;;;15.94;100.00
19748;BME280;10032;51.386;12.516;2023-08-30T02:40:36;99358.00;;;15.94;100.00
19748;BME280;10032;51.386;12.516;2023-08-30T02:43:01;99358.81;;;15.95;100.00
19748;BME280;10032;51.386;12.516;2023-08-30T02:45:27;99355.44;;;15.98;100.00
19748;BME280;10032;51.386;12.516;2023-08-30T02:47:55;99346.97;;;15.99;100.00
19748;BME280;10032;51.386;12.516;2023-08-30T02:50:21;99351.31;;;16.00;100.00
19748;BME280;10032;51.386;12.516;2023-08-30T02:52:46;99352.13;;;16.01;100.00
19748;BME280;10032;51.386;12.516;2023-08-30T02:55:12;99353.16;;;16.05;100.00
19748;BME280;10032;51.386;12.516;2023-08-30T02:57:37;99356.97;;;16.04;100.00
19748;BME280;10032;51.386;12.516;2023-08-30T03:00:03;99367.09;;;16.03;100.00
19748;BME280;10032;51.386;12.516;2023-08-30T03:02:31;99357.78;;;16.04;100.00
19748;BME280;10032;51.386;12.516;2023-08-30T03:04:58;99359.41;;;16.05;100.00
19748;BME280;10032;51.386;12.516;2023-08-30T03:07:24;99366.47;;;16.06;100.00
19748;BME280;10032;51.386;12.516;2023-08-30T03:09:52;99362.66;;;16.07;100.00
19748;BME280;10032;51.386;12.516;2023-08-30T03:12:18;99362.66;;;16.07;100.00
19748;BME280;10032;51.386;12.516;2023-08-30T03:14:43;99359.94;;;16.07;100.00
19748;BME280;10032;51.386;12.516;2023-08-30T03:17:09;99368.91;;;16.08;100.00
19748;BME280;10032;51.386;12.516;2023-08-30T03:19:34;99360.91;;;16.11;100.00
19748;BME280;10032;51.386;12.516;2023-08-30T03:21:59;99367.50;;;16.10;100.00
19748;BME280;10032;51.386;12.516;2023-08-30T03:24:25;99369.75;;;16.08;100.00
19748;BME280;10032;51.386;12.516;2023-08-30T03:26:51;99369.13;;;16.11;100.00
19748;BME280;10032;51.386;12.516;2023-08-30T03:29:16;99368.50;;;16.14;100.00
19748;BME280;10032;51.386;12.516;2023-08-30T03:31:42;99362.53;;;16.12;100.00
19748;BME280;10032;51.386;12.516;2023-08-30T03:34:09;99360.81;;;16.16;100.00
19748;BME280;10032;51.386;12.516;2023-08-30T03:36:34;99371.75;;;16.16;100.00
19748;BME280;10032;51.386;12.516;2023-08-30T03:39:00;99365.25;;;16.12;100.00
19748;BME280;10032;51.386;12.516;2023-08-30T03:41:25;99369.94;;;16.12;100.00
19748;BME280;10032;51.386;12.516;2023-08-30T03:43:51;99363.16;;;16.09;100.00
19748;BME280;10032;51.386;12.516;2023-08-30T03:46:16;99374.56;;;16.11;100.00
19748;BME280;10032;51.386;12.516;2023-08-30T03:48:42;99380.66;;;16.08;100.00
19748;BME280;10032;51.386;12.516;2023-08-30T03:51:07;99368.13;;;16.07;100.00
19748;BME280;10032;51.386;12.516;2023-08-30T03:53:32;99376.81;;;16.09;100.00
19748;BME280;10032;51.386;12.516;2023-08-30T03:55:58;99378.22;;;16.07;100.00
19748;BME280;10032;51.386;12.516;2023-08-30T03:58:24;99375.69;;;16.10;100.00
19748;BME280;10032;51.386;12.516;2023-08-30T04:00:50;99374.56;;;16.11;100.00
19748;BME280;10032;51.386;12.516;2023-08-30T04:03:15;99384.38;;;16.12;100.00
19748;BME280;10032;51.386;12.516;2023-08-30T04:05:41;99383.31;;;16.13;100.00
19748;BME280;10032;51.386;12.516;2023-08-30T04:08:07;99378.63;;;16.14;100.00
19748;BME280;10032;51.386;12.516;2023-08-30T04:10:37;99380.56;;;16.13;100.00
19748;BME280;10032;51.386;12.516;2023-08-30T04:13:04;99367.50;;;16.10;100.00
19748;BME280;10032;51.386;12.516;2023-08-30T04:15:37;99372.38;;;16.13;100.00
19748;BME280;10032;51.386;12.516;2023-08-30T04:18:03;99370.44;;;16.14;100.00
19748;BME280;10032;51.386;12.516;2023-08-30T04:20:29;99369.31;;;16.15;100.00
19748;BME280;10032;51.386;12.516;2023-08-30T04:22:55;99372.88;;;16.15;100.00
19748;BME280;10032;51.386;12.516;2023-08-30T04:25:22;99370.31;;;16.19;100.00
19748;BME280;10032;51.386;12.516;2023-08-30T04:27:47;99376.63;;;16.19;100.00
19748;BME280;10032;51.386;12.516;2023-08-30T04:30:13;99372.03;;;16.15;100.00
19748;BME280;10032;51.386;12.516;2023-08-30T04:32:38;99377.22;;;16.16;100.00
19748;BME280;10032;51.386;12.516;2023-08-30T04:35:04;99378.81;;;16.17;100.00
19748;BME280;10032;51.386;12.516;2023-08-30T04:37:30;99377.22;;;16.16;100.00
19748;BME280;10032;51.386;12.516;2023-08-30T04:39:58;99374.47;;;16.16;100.00
19748;BME280;10032;51.386;12.516;2023-08-30T04:42:23;99374.28;;;16.13;100.00
19748;BME280;10032;51.386;12.516;2023-08-30T04:44:50;99383.91;;;16.10;100.00
19748;BME280;10032;51.386;12.516;2023-08-30T04:47:16;99370.22;;;16.10;100.00
19748;BME280;10032;51.386;12.516;2023-08-30T04:49:41;99377.31;;;16.11;100.00
19748;BME280;10032;51.386;12.516;2023-08-30T04:52:07;99374.78;;;16.15;100.00
19748;BME280;10032;51.386;12.516;2023-08-30T04:54:32;99381.06;;;16.15;100.00
19748;BME280;10032;51.386;12.516;2023-08-30T04:56:57;99373.16;;;16.14;100.00
19748;BME280;10032;51.386;12.516;2023-08-30T04:59:23;99373.97;;;16.14;100.00
19748;BME280;10032;51.386;12.516;2023-08-30T05:01:49;99377.84;;;16.13;100.00
19748;BME280;10032;51.386;12.516;2023-08-30T05:04:16;99377.84;;;16.13;100.00
19748;BME280;10032;51.386;12.516;2023-08-30T05:06:42;99379.44;;;16.14;100.00
19748;BME280;10032;51.386;12.516;2023-08-30T05:09:07;99382.06;;;16.19;100.00
19748;BME280;10032;51.386;12.516;2023-08-30T05:11:32;99377.72;;;16.18;100.00
19748;BME280;10032;51.386;12.516;2023-08-30T05:13:58;99375.28;;;16.17;100.00
19748;BME280;10032;51.386;12.516;2023-08-30T05:16:23;99374.78;;;16.15;100.00
19748;BME280;10032;51.386;12.516;2023-08-30T05:18:48;99382.19;;;16.14;100.00
19748;BME280;10032;51.386;12.516;2023-08-30T05:21:14;99382.69;;;16.16;100.00
19748;BME280;10032;51.386;12.516;2023-08-30T05:23:40;99383.78;;;16.15;100.00
19748;BME280;10032;51.386;12.516;2023-08-30T05:26:09;99388.78;;;16.13;100.00
19748;BME280;10032;51.386;12.516;2023-08-30T05:28:34;99380.25;;;16.15;100.00
19748;BME280;10032;51.386;12.516;2023-08-30T05:31:00;99375.78;;;16.19;100.00
19748;BME280;10032;51.386;12.516;2023-08-30T05:33:25;99382.56;;;16.21;100.00
19748;BME280;10032;51.386;12.516;2023-08-30T05:35:50;99380.13;;;16.20;100.00
19748;BME280;10032;51.386;12.516;2023-08-30T05:38:16;99373.25;;;16.22;100.00
19748;BME280;10032;51.386;12.516;2023-08-30T05:40:41;99377.63;;;16.23;100.00
19748;BME280;10032;51.386;12.516;2023-08-30T05:43:10;99383.28;;;16.27;100.00
19748;BME280;10032;51.386;12.516;2023-08-30T05:45:35;99384.41;;;16.26;100.00
19748;BME280;10032;51.386;12.516;2023-08-30T05:48:01;99378.03;;;16.30;100.00
19748;BME280;10032;51.386;12.516;2023-08-30T05:50:26;99381.88;;;16.29;100.00
19748;BME280;10032;51.386;12.516;2023-08-30T05:52:51;99383.97;;;16.32;100.00
19748;BME280;10032;51.386;12.516;2023-08-30T05:55:17;99385.09;;;16.31;100.00
19748;BME280;10032;51.386;12.516;2023-08-30T05:57:42;99379.63;;;16.31;100.00
19748;BME280;10032;51.386;12.516;2023-08-30T06:00:08;99371.91;;;16.33;100.00
19748;BME280;10032;51.386;12.516;2023-08-30T06:02:34;99382.25;;;16.36;100.00
19748;BME280;10032;51.386;12.516;2023-08-30T06:04:59;99370.13;;;16.42;100.00
19748;BME280;10032;51.386;12.516;2023-08-30T06:07:24;99369.22;;;16.47;100.00
19748;BME280;10032;51.386;12.516;2023-08-30T06:09:50;99367.81;;;16.49;100.00
19748;BME280;10032;51.386;12.516;2023-08-30T06:12:15;99370.53;;;16.49;100.00
19748;BME280;10032;51.386;12.516;2023-08-30T06:14:42;99379.22;;;16.51;100.00
19748;BME280;10032;51.386;12.516;2023-08-30T06:17:07;99369.09;;;16.52;100.00
19748;BME280;10032;51.386;12.516;2023-08-30T06:19:32;99369.09;;;16.52;100.00
19748;BME280;10032;51.386;12.516;2023-08-30T06:21:58;99373.75;;;16.51;100.00
19748;BME280;10032;51.386;12.516;2023-08-30T06:24:23;99367.66;;;16.54;100.00
19748;BME280;10032;51.386;12.516;2023-08-30T06:26:48;99373.34;;;16.58;100.00
19748;BME280;10032;51.386;12.516;2023-08-30T06:29:14;99376.88;;;16.58;100.00
19748;BME280;10032;51.386;12.516;2023-08-30T06:31:39;99373.03;;;16.59;100.00
19748;BME280;10032;51.386;12.516;2023-08-30T06:34:06;99372.31;;;16.67;100.00
19748;BME280;10032;51.386;12.516;2023-08-30T06:36:32;99370.53;;;16.85;100.00
19748;BME280;10032;51.386;12.516;2023-08-30T06:38:57;99371.59;;;16.97;100.00
19748;BME280;10032;51.386;12.516;2023-08-30T06:41:23;99369.22;;;17.04;100.00
19748;BME280;10032;51.386;12.516;2023-08-30T06:43:48;99368.22;;;17.22;100.00
19748;BME280;10032;51.386;12.516;2023-08-30T06:46:14;99361.00;;;17.48;100.00
19748;BME280;10032;51.386;12.516;2023-08-30T06:48:39;99357.13;;;17.71;100.00
19748;BME280;10032;51.386;12.516;2023-08-30T06:51:04;99353.81;;;17.91;100.00
19748;BME280;10032;51.386;12.516;2023-08-30T06:53:30;99366.91;;;18.03;100.00
19748;BME280;10032;51.386;12.516;2023-08-30T06:55:59;99364.19;;;18.11;100.00
19748;BME280;10032;51.386;12.516;2023-08-30T06:58:25;99355.34;;;18.14;100.00
19748;BME280;10032;51.386;12.516;2023-08-30T07:00:51;99362.78;;;18.31;100.00
19748;BME280;10032;51.386;12.516;2023-08-30T07:03:16;99368.53;;;18.43;100.00
19748;BME280;10032;51.386;12.516;2023-08-30T07:05:42;99359.34;;;18.56;100.00
19748;BME280;10032;51.386;12.516;2023-08-30T07:08:09;99360.31;;;18.77;100.00
19748;BME280;10032;51.386;12.516;2023-08-30T07:10:34;99366.47;;;18.99;100.00
19748;BME280;10032;51.386;12.516;2023-08-30T07:13:00;99366.63;;;19.11;100.00
19748;BME280;10032;51.386;12.516;2023-08-30T07:15:25;99372.78;;;19.25;100.00
19748;BME280;10032;51.386;12.516;2023-08-30T07:17:51;99371.16;;;19.24;100.00
19748;BME280;10032;51.386;12.516;2023-08-30T07:20:17;99358.22;;;19.33;100.00
19748;BME280;10032;51.386;12.516;2023-08-30T07:22:42;99359.19;;;19.37;100.00
19748;BME280;10032;51.386;12.516;2023-08-30T07:25:08;99362.09;;;19.32;100.00
19748;BME280;10032;51.386;12.516;2023-08-30T07:27:35;99361.31;;;19.32;100.00
19748;BME280;10032;51.386;12.516;2023-08-30T07:30:01;99359.19;;;19.37;100.00
19748;BME280;10032;51.386;12.516;2023-08-30T07:32:26;99360.94;;;19.42;100.00
19748;BME280;10032;51.386;12.516;2023-08-30T07:34:52;99355.09;;;19.52;100.00
19748;BME280;10032;51.386;12.516;2023-08-30T07:37:21;99361.38;;;19.61;100.00
19748;BME280;10032;51.386;12.516;2023-08-30T07:39:46;99366.72;;;19.66;100.00
19748;BME280;10032;51.386;12.516;2023-08-30T07:42:13;99360.03;;;19.75;100.00
19748;BME280;10032;51.386;12.516;2023-08-30T07:44:38;99362.63;;;19.72;100.00
19748;BME280;10032;51.386;12.516;2023-08-30T07:47:04;99356.16;;;19.76;100.00
19748;BME280;10032;51.386;12.516;2023-08-30T07:49:29;99353.50;;;19.97;100.00
19748;BME280;10032;51.386;12.516;2023-08-30T07:51:55;99361.06;;;20.00;100.00
19748;BME280;10032;51.386;12.516;2023-08-30T07:54:20;99356.38;;;20.00;100.00
19748;BME280;10032;51.386;12.516;2023-08-30T07:56:45;99352.97;;;20.12;100.00
19748;BME280;10032;51.386;12.516;2023-08-30T07:59:14;99358.25;;;20.25;100.00
19748;BME280;10032;51.386;12.516;2023-08-30T08:01:40;99359.03;;;20.26;100.00
19748;BME280;10032;51.386;12.516;2023-08-30T08:04:05;99357.09;;;20.26;100.00
19748;BME280;10032;51.386;12.516;2023-08-30T08:06:31;99359.34;;;20.33;100.00
19748;BME280;10032;51.386;12.516;2023-08-30T08:08:56;99364.84;;;20.53;100.00
19748;BME280;10032;51.386;12.516;2023-08-30T08:11:21;99370.09;;;20.67;100.00
19748;BME280;10032;51.386;12.516;2023-08-30T08:13:47;99364.13;;;20.85;100.00
19748;BME280;10032;51.386;12.516;2023-08-30T08:16:12;99365.41;;;20.88;100.00
19748;BME280;10032;51.386;12.516;2023-08-30T08:18:38;99366.66;;;20.99;100.00
19748;BME280;10032;51.386;12.516;2023-08-30T08:21:03;99361.25;;;21.02;100.00
19748;BME280;10032;51.386;12.516;2023-08-30T08:23:29;99365.97;;;21.22;100.00
19748;BME280;10032;51.386;12.516;2023-08-30T08:26:00;99369.63;;;21.14;100.00
19748;BME280;10032;51.386;12.516;2023-08-30T08:28:28;99363.06;;;21.19;100.00
19748;BME280;10032;51.386;12.516;2023-08-30T08:30:53;99365.44;;;21.41;100.00
19748;BME280;10032;51.386;12.516;2023-08-30T08:33:18;99358.34;;;21.52;100.00
19748;BME280;10032;51.386;12.516;2023-08-30T08:35:45;99362.50;;;21.58;100.00
19748;BME280;10032;51.386;12.516;2023-08-30T08:38:10;99357.72;;;21.67;100.00
19748;BME280;10032;51.386;12.516;2023-08-30T08:43:05;99362.16;;;21.80;100.00
19748;BME280;10032;51.386;12.516;2023-08-30T08:45:34;99367.66;;;21.80;100.00
19748;BME280;10032;51.386;12.516;2023-08-30T08:48:03;99359.28;;;21.88;100.00
19748;BME280;10032;51.386;12.516;2023-08-30T08:50:29;99368.03;;;22.02;100.00
19748;BME280;10032;51.386;12.516;2023-08-30T08:52:55;99360.00;;;22.21;100.00
19748;BME280;10032;51.386;12.516;2023-08-30T08:55:22;99360.44;;;22.23;100.00
19748;BME280;10032;51.386;12.516;2023-08-30T08:57:48;99363.91;;;22.44;100.00
19748;BME280;10032;51.386;12.516;2023-08-30T09:00:13;99364.81;;;22.72;100.00
19748;BME280;10032;51.386;12.516;2023-08-30T09:02:40;99365.69;;;22.76;100.00
19748;BME280;10032;51.386;12.516;2023-08-30T09:05:07;99367.91;;;22.59;100.00
19748;BME280;10032;51.386;12.516;2023-08-30T09:07:33;99364.25;;;22.55;100.00
19748;BME280;10032;51.386;12.516;2023-08-30T09:09:59;99364.28;;;22.82;100.00
19748;BME280;10032;51.386;12.516;2023-08-30T09:12:24;99364.66;;;22.81;100.00
19748;BME280;10032;51.386;12.516;2023-08-30T09:14:56;99358.38;;;22.68;100.00
19748;BME280;10032;51.386;12.516;2023-08-30T09:17:22;99361.25;;;22.48;100.00
19748;BME280;10032;51.386;12.516;2023-08-30T09:19:47;99355.63;;;22.32;100.00
19748;BME280;10032;51.386;12.516;2023-08-30T09:22:13;99361.16;;;22.56;100.00
19748;BME280;10032;51.386;12.516;2023-08-30T09:24:39;99354.03;;;22.95;100.00
19748;BME280;10032;51.386;12.516;2023-08-30T09:27:05;99352.59;;;23.40;100.00
19748;BME280;10032;51.386;12.516;2023-08-30T09:29:31;99349.78;;;23.52;100.00
19748;BME280;10032;51.386;12.516;2023-08-30T09:31:57;99358.84;;;23.37;100.00
19748;BME280;10032;51.386;12.516;2023-08-30T09:34:25;99352.47;;;23.21;100.00
19748;BME280;10032;51.386;12.516;2023-08-30T09:36:52;99351.69;;;23.09;100.00
19748;BME280;10032;51.386;12.516;2023-08-30T09:39:17;99352.53;;;22.97;100.00
19748;BME280;10032;51.386;12.516;2023-08-30T09:41:47;99354.75;;;22.80;100.00
19748;BME280;10032;51.386;12.516;2023-08-30T09:44:14;99354.66;;;22.76;100.00
19748;BME280;10032;51.386;12.516;2023-08-30T09:46:49;99355.13;;;22.66;100.00
19748;BME280;10032;51.386;12.516;2023-08-30T09:49:14;99350.09;;;22.56;100.00
19748;BME280;10032;51.386;12.516;2023-08-30T09:51:41;99351.22;;;22.55;100.00
19748;BME280;10032;51.386;12.516;2023-08-30T09:54:14;99357.81;;;22.51;100.00
19748;BME280;10032;51.386;12.516;2023-08-30T09:56:41;99361.34;;;22.39;100.00
19748;BME280;10032;51.386;12.516;2023-08-30T09:59:07;99352.50;;;22.34;100.00
19748;BME280;10032;51.386;12.516;2023-08-30T10:01:33;99351.13;;;22.40;100.00
19748;BME280;10032;51.386;12.516;2023-08-30T10:04:00;99344.09;;;22.42;100.00
19748;BME280;10032;51.386;12.516;2023-08-30T10:06:29;99349.88;;;22.49;100.00
19748;BME280;10032;51.386;12.516;2023-08-30T10:08:56;99349.53;;;22.51;100.00
19748;BME280;10032;51.386;12.516;2023-08-30T10:11:23;99346.66;;;22.47;100.00
19748;BME280;10032;51.386;12.516;2023-08-30T10:13:51;99351.22;;;22.55;97.31
19748;BME280;10032;51.386;12.516;2023-08-30T10:16:22;99347.47;;;22.99;98.35
19748;BME280;10032;51.386;12.516;2023-08-30T10:19:16;99348.16;;;23.51;95.23
19748;BME280;10032;51.386;12.516;2023-08-30T10:21:47;99347.13;;;23.71;94.77
19748;BME280;10032;51.386;12.516;2023-08-30T10:24:16;99344.50;;;23.90;92.49
19748;BME280;10032;51.386;12.516;2023-08-30T10:26:45;99345.94;;;24.15;94.34
19748;BME280;10032;51.386;12.516;2023-08-30T10:29:12;99341.59;;;24.33;92.84
19748;BME280;10032;51.386;12.516;2023-08-30T10:31:40;99344.28;;;24.61;90.73
19748;BME280;10032;51.386;12.516;2023-08-30T10:34:14;99335.41;;;24.71;90.11
19748;BME280;10032;51.386;12.516;2023-08-30T10:36:41;99342.03;;;24.85;87.83
19748;BME280;10032;51.386;12.516;2023-08-30T10:39:11;99332.78;;;24.97;87.42
19748;BME280;10032;51.386;12.516;2023-08-30T10:41:37;99338.31;;;25.16;86.26
19748;BME280;10032;51.386;12.516;2023-08-30T10:44:02;99343.56;;;25.21;83.94
19748;BME280;10032;51.386;12.516;2023-08-30T10:46:34;99348.19;;;25.13;82.57
19748;BME280;10032;51.386;12.516;2023-08-30T10:49:11;99344.69;;;25.35;83.70
19748;BME280;10032;51.386;12.516;2023-08-30T10:51:39;99345.56;;;25.39;79.92
19748;BME280;10032;51.386;12.516;2023-08-30T10:54:12;99335.03;;;25.48;80.05
19748;BME280;10032;51.386;12.516;2023-08-30T10:56:57;99343.78;;;25.69;78.43
19748;BME280;10032;51.386;12.516;2023-08-30T10:59:25;99329.97;;;25.95;79.17
19748;BME280;10032;51.386;12.516;2023-08-30T11:01:51;99330.31;;;25.71;74.77
19748;BME280;10032;51.386;12.516;2023-08-30T11:04:21;99332.34;;;25.74;77.15
19748;BME280;10032;51.386;12.516;2023-08-30T11:06:51;99340.06;;;25.84;74.78
19748;BME280;10032;51.386;12.516;2023-08-30T11:09:21;99335.66;;;26.02;75.50
19748;BME280;10032;51.386;12.516;2023-08-30T11:11:48;99327.97;;;26.18;74.40
19748;BME280;10032;51.386;12.516;2023-08-30T11:14:16;99327.16;;;26.18;69.02
19748;BME280;10032;51.386;12.516;2023-08-30T11:16:42;99322.03;;;26.42;71.67
19748;BME280;10032;51.386;12.516;2023-08-30T11:19:09;99325.59;;;26.69;70.02
19748;BME280;10032;51.386;12.516;2023-08-30T11:21:37;99319.09;;;26.58;66.26
19748;BME280;10032;51.386;12.516;2023-08-30T11:24:03;99329.56;;;26.19;66.08
19748;BME280;10032;51.386;12.516;2023-08-30T11:26:29;99335.53;;;25.95;67.70
19748;BME280;10032;51.386;12.516;2023-08-30T11:28:55;99327.75;;;25.82;67.19
19748;BME280;10032;51.386;12.516;2023-08-30T11:31:22;99325.81;;;25.63;69.29
19748;BME280;10032;51.386;12.516;2023-08-30T11:33:58;99324.06;;;25.55;68.35
19748;BME280;10032;51.386;12.516;2023-08-30T11:36:32;99327.91;;;25.47;68.80
19748;BME280;10032;51.386;12.516;2023-08-30T11:39:00;99325.84;;;25.44;68.67
19748;BME280;10032;51.386;12.516;2023-08-30T11:41:25;99316.00;;;25.69;69.51
19748;BME280;10032;51.386;12.516;2023-08-30T11:43:51;99322.50;;;25.77;67.93
19748;BME280;10032;51.386;12.516;2023-08-30T11:46:17;99312.63;;;26.02;68.48
19748;BME280;10032;51.386;12.516;2023-08-30T11:48:44;99309.50;;;26.29;70.32
19748;BME280;10032;51.386;12.516;2023-08-30T11:51:10;99309.59;;;26.36;66.64
19748;BME280;10032;51.386;12.516;2023-08-30T11:53:37;99317.38;;;26.24;62.71
19748;BME280;10032;51.386;12.516;2023-08-30T11:56:04;99315.53;;;26.35;63.78
19748;BME280;10032;51.386;12.516;2023-08-30T11:58:36;99312.06;;;26.41;61.69
19748;BME280;10032;51.386;12.516;2023-08-30T12:01:03;99308.53;;;26.44;60.96
19748;BME280;10032;51.386;12.516;2023-08-30T12:03:29;99307.72;;;26.44;58.64
19748;BME280;10032;51.386;12.516;2023-08-30T12:05:55;99299.84;;;26.46;58.89
19748;BME280;10032;51.386;12.516;2023-08-30T12:08:27;99302.09;;;26.63;59.11
19748;BME280;10032;51.386;12.516;2023-08-30T12:10:54;99303.34;;;26.69;58.61
19748;BME280;10032;51.386;12.516;2023-08-30T12:13:27;99288.59;;;26.94;57.55
19748;BME280;10032;51.386;12.516;2023-08-30T12:15:54;99292.03;;;27.14;58.31
19748;BME280;10032;51.386;12.516;2023-08-30T12:20:56;99285.44;;;26.96;56.35
19748;BME280;10032;51.386;12.516;2023-08-30T12:23:23;99278.91;;;27.14;56.42
19748;BME280;10032;51.386;12.516;2023-08-30T12:26:07;99274.53;;;27.13;53.56
19748;BME280;10032;51.386;12.516;2023-08-30T12:28:34;99274.38;;;27.32;55.35
19748;BME280;10032;51.386;12.516;2023-08-30T12:31:01;99271.56;;;27.29;55.24
19748;BME280;10032;51.386;12.516;2023-08-30T12:33:27;99274.34;;;26.99;54.17
19748;BME280;10032;51.386;12.516;2023-08-30T12:35:54;99269.06;;;26.58;54.76
19748;BME280;10032;51.386;12.516;2023-08-30T12:38:20;99267.28;;;26.76;54.18
19748;BME280;10032;51.386;12.516;2023-08-30T12:40:51;99267.38;;;26.79;54.18
19748;BME280;10032;51.386;12.516;2023-08-30T12:43:17;99270.44;;;26.71;52.90
19748;BME280;10032;51.386;12.516;2023-08-30T12:45:43;99260.34;;;26.59;51.59
19748;BME280;10032;51.386;12.516;2023-08-30T12:48:10;99264.69;;;26.57;52.92